sensor_id;sensor_type;location;lat;lon;timestamp;pressure;altitude;pressure_sealevel;temperature;humidity
69035;BME280;56091;55.756;37.412;2023-04-15T00:00:21;100109.56;;;1.88;24.84
69035;BME280;56091;55.756;37.412;2023-04-15T00:05:23;100110.31;;;1.97;25.07
69035;BME280;56091;55.756;37.412;2023-04-15T00:10:24;100124.03;;;1.86;25.06
69035;BME280;56091;55.756;37.412;2023-04-15T00:15:25;100121.91;;;1.81;25.29
69035;BME280;56091;55.756;37.412;2023-04-15T00:20:26;100142.63;;;1.94;24.79
69035;BME280;56091;55.756;37.412;2023-04-15T00:25:27;100136.88;;;1.82;25.35
69035;BME280;56091;55.756;37.412;2023-04-15T00:30:28;100116.19;;;1.69;25.13
69035;BME280;56091;55.756;37.412;2023-04-15T00:35:29;100134.31;;;1.66;24.93
69035;BME280;56091;55.756;37.412;2023-04-15T00:40:33;100159.63;;;1.62;25.43
69035;BME280;56091;55.756;37.412;2023-04-15T00:45:34;100161.38;;;1.46;25.81
69035;BME280;56091;55.756;37.412;2023-04-15T00:50:35;100163.97;;;1.54;26.75
69035;BME280;56091;55.756;37.412;2023-04-15T00:55:36;100170.34;;;1.77;25.57
69035;BME280;56091;55.756;37.412;2023-04-15T01:00:37;100161.97;;;1.56;26.17
69035;BME280;56091;55.756;37.412;2023-04-15T01:05:38;100168.81;;;1.51;26.17
69035;BME280;56091;55.756;37.412;2023-04-15T01:10:40;100163.94;;;1.31;26.69
69035;BME280;56091;55.756;37.412;2023-04-15T01:15:41;100188.78;;;1.47;26.52
69035;BME280;56091;55.756;37.412;2023-04-15T01:20:43;100188.47;;;1.42;26.33
69035;BME280;56091;55.756;37.412;2023-04-15T01:25:44;100194.81;;;1.32;27.02
69035;BME280;56091;55.756;37.412;2023-04-15T01:30:46;100198.03;;;1.20;26.79
69035;BME280;56091;55.756;37.412;2023-04-15T01:35:49;100206.84;;;1.12;26.77
69035;BME280;56091;55.756;37.412;2023-04-15T01:40:49;100215.50;;;1.06;27.29
69035;BME280;56091;55.756;37.412;2023-04-15T01:45:52;100215.00;;;1.02;27.08
69035;BME280;56091;55.756;37.412;2023-04-15T01:50:54;100209.38;;;0.89;26.94
69035;BME280;56091;55.756;37.412;2023-04-15T01:55:58;100225.03;;;0.84;27.17
69035;BME280;56091;55.756;37.412;2023-04-15T02:01:01;100222.50;;;0.90;27.61
69035;BME280;56091;55.756;37.412;2023-04-15T02:06:06;100220.19;;;0.95;27.53
69035;BME280;56091;55.756;37.412;2023-04-15T02:11:11;100239.59;;;0.96;27.73
69035;BME280;56091;55.756;37.412;2023-04-15T02:16:17;100241.94;;;0.99;27.70
69035;BME280;56091;55.756;37.412;2023-04-15T02:21:19;100249.06;;;0.90;27.28
69035;BME280;56091;55.756;37.412;2023-04-15T02:26:22;100250.22;;;0.96;27.77
69035;BME280;56091;55.756;37.412;2023-04-15T02:31:24;100211.56;;;0.77;27.92
69035;BME280;56091;55.756;37.412;2023-04-15T02:36:27;100264.19;;;0.90;27.27
69035;BME280;56091;55.756;37.412;2023-04-15T02:41:30;100276.16;;;0.86;27.57
69035;BME280;56091;55.756;37.412;2023-04-15T02:46:33;100279.28;;;1.06;27.65
69035;BME280;56091;55.756;37.412;2023-04-15T02:51:35;100265.84;;;0.83;27.28
69035;BME280;56091;55.756;37.412;2023-04-15T02:56:37;100301.41;;;0.82;27.08
69035;BME280;56091;55.756;37.412;2023-04-15T03:01:39;100298.22;;;0.86;27.22
69035;BME280;56091;55.756;37.412;2023-04-15T03:06:42;100298.56;;;0.83;27.67
69035;BME280;56091;55.756;37.412;2023-04-15T03:11:44;100302.53;;;0.87;27.42
69035;BME280;56091;55.756;37.412;2023-04-15T03:16:47;100302.72;;;0.94;27.25
69035;BME280;56091;55.756;37.412;2023-04-15T03:21:52;100300.88;;;0.94;27.24
69035;BME280;56091;55.756;37.412;2023-04-15T03:26:57;100307.34;;;1.00;26.95
69035;BME280;56091;55.756;37.412;2023-04-15T03:32:00;100305.88;;;0.97;26.58
69035;BME280;56091;55.756;37.412;2023-04-15T03:37:07;100320.31;;;1.20;26.61
69035;BME280;56091;55.756;37.412;2023-04-15T03:42:09;100323.44;;;1.31;26.82
69035;BME280;56091;55.756;37.412;2023-04-15T03:47:11;100324.41;;;1.30;26.59
69035;BME280;56091;55.756;37.412;2023-04-15T03:52:14;100326.75;;;1.33;26.59
69035;BME280;56091;55.756;37.412;2023-04-15T03:57:16;100340.84;;;1.50;26.36
69035;BME280;56091;55.756;37.412;2023-04-15T04:02:18;100342.84;;;1.40;26.71
69035;BME280;56091;55.756;37.412;2023-04-15T04:07:22;100342.63;;;1.66;26.39
69035;BME280;56091;55.756;37.412;2023-04-15T04:12:24;100339.25;;;1.81;26.21
69035;BME280;56091;55.756;37.412;2023-04-15T04:17:29;100348.69;;;1.91;26.22
69035;BME280;56091;55.756;37.412;2023-04-15T04:22:39;100350.09;;;2.10;25.97
69035;BME280;56091;55.756;37.412;2023-04-15T04:27:41;100346.00;;;2.31;25.69
69035;BME280;56091;55.756;37.412;2023-04-15T04:32:44;100352.22;;;2.54;25.20
69035;BME280;56091;55.756;37.412;2023-04-15T04:37:46;100355.03;;;2.53;25.22
69035;BME280;56091;55.756;37.412;2023-04-15T04:42:48;100351.81;;;2.34;25.35
69035;BME280;56091;55.756;37.412;2023-04-15T04:47:51;100357.13;;;2.34;25.25
69035;BME280;56091;55.756;37.412;2023-04-15T04:52:59;100358.91;;;2.50;25.49
69035;BME280;56091;55.756;37.412;2023-04-15T04:58:02;100364.66;;;2.85;25.61
69035;BME280;56091;55.756;37.412;2023-04-15T05:03:05;100363.53;;;2.80;24.93
69035;BME280;56091;55.756;37.412;2023-04-15T05:08:07;100360.53;;;2.98;25.35
69035;BME280;56091;55.756;37.412;2023-04-15T05:13:09;100363.50;;;2.57;24.89
69035;BME280;56091;55.756;37.412;2023-04-15T05:18:12;100358.13;;;2.65;25.45
69035;BME280;56091;55.756;37.412;2023-04-15T05:23:14;100362.97;;;2.84;25.06
69035;BME280;56091;55.756;37.412;2023-04-15T05:28:17;100368.84;;;3.03;24.80
69035;BME280;56091;55.756;37.412;2023-04-15T05:33:19;100369.72;;;3.18;24.59
69035;BME280;56091;55.756;37.412;2023-04-15T05:38:24;100376.97;;;3.62;23.82
69035;BME280;56091;55.756;37.412;2023-04-15T05:43:26;100368.41;;;3.52;24.04
69035;BME280;56091;55.756;37.412;2023-04-15T05:48:28;100380.19;;;3.72;24.01
69035;BME280;56091;55.756;37.412;2023-04-15T05:53:30;100390.78;;;3.81;23.60
69035;BME280;56091;55.756;37.412;2023-04-15T05:58:32;100361.06;;;3.69;23.62
69035;BME280;56091;55.756;37.412;2023-04-15T06:03:35;100396.75;;;3.68;23.50
69035;BME280;56091;55.756;37.412;2023-04-15T06:08:37;100403.00;;;3.75;23.14
69035;BME280;56091;55.756;37.412;2023-04-15T06:13:39;100391.22;;;3.69;23.24
69035;BME280;56091;55.756;37.412;2023-04-15T06:18:41;100398.97;;;4.09;23.82
69035;BME280;56091;55.756;37.412;2023-04-15T06:23:43;100403.38;;;4.32;23.08
69035;BME280;56091;55.756;37.412;2023-04-15T06:28:45;100398.19;;;4.45;23.89
69035;BME280;56091;55.756;37.412;2023-04-15T06:33:47;100394.59;;;4.53;22.13
69035;BME280;56091;55.756;37.412;2023-04-15T06:38:50;100393.75;;;4.88;22.36
69035;BME280;56091;55.756;37.412;2023-04-15T06:43:52;100397.78;;;4.63;22.13
69035;BME280;56091;55.756;37.412;2023-04-15T06:48:54;100400.09;;;4.87;22.44
69035;BME280;56091;55.756;37.412;2023-04-15T06:53:57;100409.56;;;4.68;22.25
69035;BME280;56091;55.756;37.412;2023-04-15T06:59:01;100408.59;;;5.13;22.21
69035;BME280;56091;55.756;37.412;2023-04-15T07:04:04;100423.09;;;5.03;22.21
69035;BME280;56091;55.756;37.412;2023-04-15T07:09:08;100419.06;;;5.36;22.08
69035;BME280;56091;55.756;37.412;2023-04-15T07:14:11;100410.16;;;5.28;21.54
69035;BME280;56091;55.756;37.412;2023-04-15T07:19:13;100411.09;;;5.42;22.07
69035;BME280;56091;55.756;37.412;2023-04-15T07:24:15;100402.34;;;5.55;21.02
69035;BME280;56091;55.756;37.412;2023-04-15T07:29:18;100415.91;;;5.82;20.59
69035;BME280;56091;55.756;37.412;2023-04-15T07:34:29;100413.72;;;5.92;20.31
69035;BME280;56091;55.756;37.412;2023-04-15T07:39:31;100407.13;;;6.30;20.04
69035;BME280;56091;55.756;37.412;2023-04-15T07:44:33;100406.84;;;6.53;19.84
69035;BME280;56091;55.756;37.412;2023-04-15T07:49:36;100407.13;;;6.30;19.45
69035;BME280;56091;55.756;37.412;2023-04-15T07:54:41;100390.97;;;6.10;19.66
69035;BME280;56091;55.756;37.412;2023-04-15T07:59:46;100411.94;;;6.41;19.71
69035;BME280;56091;55.756;37.412;2023-04-15T08:04:51;100410.25;;;6.33;18.99
69035;BME280;56091;55.756;37.412;2023-04-15T08:09:54;100406.84;;;6.59;19.03
69035;BME280;56091;55.756;37.412;2023-04-15T08:14:57;100411.47;;;6.92;18.70
69035;BME280;56091;55.756;37.412;2023-04-15T08:19:59;100402.44;;;7.20;17.99
69035;BME280;56091;55.756;37.412;2023-04-15T08:25:01;100396.00;;;6.94;17.90
69035;BME280;56091;55.756;37.412;2023-04-15T08:30:05;100387.38;;;7.26;17.80
69035;BME280;56091;55.756;37.412;2023-04-15T08:35:07;100409.47;;;7.28;17.63
69035;BME280;56091;55.756;37.412;2023-04-15T08:40:10;100387.59;;;7.17;17.85
69035;BME280;56091;55.756;37.412;2023-04-15T08:45:12;100401.59;;;7.53;17.58
69035;BME280;56091;55.756;37.412;2023-04-15T08:50:14;100390.28;;;7.44;17.75
69035;BME280;56091;55.756;37.412;2023-04-15T08:55:17;100391.88;;;7.78;17.55
69035;BME280;56091;55.756;37.412;2023-04-15T09:00:21;100390.84;;;7.86;17.43
69035;BME280;56091;55.756;37.412;2023-04-15T09:05:24;100389.38;;;7.97;16.90
69035;BME280;56091;55.756;37.412;2023-04-15T09:10:27;100396.19;;;7.93;16.51
69035;BME280;56091;55.756;37.412;2023-04-15T09:15:31;100387.25;;;8.06;16.65
69035;BME280;56091;55.756;37.412;2023-04-15T09:20:40;100386.19;;;8.20;16.53
69035;BME280;56091;55.756;37.412;2023-04-15T09:25:44;100389.66;;;8.34;16.68
69035;BME280;56091;55.756;37.412;2023-04-15T09:30:46;100337.56;;;8.28;15.74
69035;BME280;56091;55.756;37.412;2023-04-15T09:40:58;100396.31;;;8.76;15.70
69035;BME280;56091;55.756;37.412;2023-04-15T09:46:00;100375.56;;;8.84;16.44
69035;BME280;56091;55.756;37.412;2023-04-15T09:51:03;100383.09;;;9.32;15.82
69035;BME280;56091;55.756;37.412;2023-04-15T09:56:05;100369.50;;;8.95;15.26
69035;BME280;56091;55.756;37.412;2023-04-15T10:01:09;100371.97;;;9.22;15.47
69035;BME280;56091;55.756;37.412;2023-04-15T10:06:13;100373.72;;;9.41;15.04
69035;BME280;56091;55.756;37.412;2023-04-15T10:11:17;100351.50;;;9.21;14.86
69035;BME280;56091;55.756;37.412;2023-04-15T10:16:20;100381.78;;;9.41;14.90
69035;BME280;56091;55.756;37.412;2023-04-15T10:21:24;100390.50;;;9.62;14.61
69035;BME280;56091;55.756;37.412;2023-04-15T10:26:26;100361.66;;;10.06;14.60
69035;BME280;56091;55.756;37.412;2023-04-15T10:31:29;100369.50;;;10.44;14.34
69035;BME280;56091;55.756;37.412;2023-04-15T10:36:32;100374.59;;;10.52;13.80
69035;BME280;56091;55.756;37.412;2023-04-15T10:41:34;100365.06;;;10.68;14.59
69035;BME280;56091;55.756;37.412;2023-04-15T10:46:40;100377.56;;;10.63;14.13
69035;BME280;56091;55.756;37.412;2023-04-15T10:51:49;100372.81;;;10.77;14.05
69035;BME280;56091;55.756;37.412;2023-04-15T10:57:08;100328.66;;;10.59;13.34
69035;BME280;56091;55.756;37.412;2023-04-15T11:02:12;100367.16;;;10.66;13.73
69035;BME280;56091;55.756;37.412;2023-04-15T11:07:15;100376.44;;;10.70;13.50
69035;BME280;56091;55.756;37.412;2023-04-15T11:12:17;100368.38;;;10.52;13.31
69035;BME280;56091;55.756;37.412;2023-04-15T11:17:26;100360.81;;;11.03;14.04
69035;BME280;56091;55.756;37.412;2023-04-15T11:22:34;100360.00;;;11.14;13.76
69035;BME280;56091;55.756;37.412;2023-04-15T11:27:36;100349.44;;;11.12;13.45
69035;BME280;56091;55.756;37.412;2023-04-15T11:32:41;100334.00;;;10.89;13.93
69035;BME280;56091;55.756;37.412;2023-04-15T11:37:47;100349.19;;;11.02;13.96
69035;BME280;56091;55.756;37.412;2023-04-15T11:43:12;100340.84;;;11.04;13.83
69035;BME280;56091;55.756;37.412;2023-04-15T11:48:14;100349.66;;;11.23;13.32
69035;BME280;56091;55.756;37.412;2023-04-15T11:53:16;100349.69;;;11.46;13.07
69035;BME280;56091;55.756;37.412;2023-04-15T11:58:24;100336.94;;;10.88;13.75
69035;BME280;56091;55.756;37.412;2023-04-15T12:03:34;100328.53;;;11.08;13.47
69035;BME280;56091;55.756;37.412;2023-04-15T12:14:19;100336.66;;;11.43;13.65
69035;BME280;56091;55.756;37.412;2023-04-15T12:19:28;100327.22;;;11.93;13.48
69035;BME280;56091;55.756;37.412;2023-04-15T12:24:34;100318.78;;;11.78;13.30
69035;BME280;56091;55.756;37.412;2023-04-15T12:29:37;100315.47;;;11.76;13.14
69035;BME280;56091;55.756;37.412;2023-04-15T12:34:40;100330.06;;;11.75;13.50
69035;BME280;56091;55.756;37.412;2023-04-15T12:39:43;100320.06;;;11.75;13.49
69035;BME280;56091;55.756;37.412;2023-04-15T12:44:45;100325.56;;;12.04;13.59
69035;BME280;56091;55.756;37.412;2023-04-15T12:49:46;100326.16;;;12.06;13.58
69035;BME280;56091;55.756;37.412;2023-04-15T12:54:49;100325.34;;;11.82;13.84
69035;BME280;56091;55.756;37.412;2023-04-15T12:59:55;100317.25;;;11.94;13.72
69035;BME280;56091;55.756;37.412;2023-04-15T13:04:58;100315.34;;;12.06;13.34
69035;BME280;56091;55.756;37.412;2023-04-15T13:09:59;100316.41;;;12.05;13.68
69035;BME280;56091;55.756;37.412;2023-04-15T13:15:00;100324.38;;;12.11;13.59
69035;BME280;56091;55.756;37.412;2023-04-15T13:20:05;100323.25;;;12.36;14.53
69035;BME280;56091;55.756;37.412;2023-04-15T13:25:09;100310.38;;;12.43;13.90
69035;BME280;56091;55.756;37.412;2023-04-15T13:30:10;100314.31;;;12.36;13.58
69035;BME280;56091;55.756;37.412;2023-04-15T13:35:11;100319.78;;;12.53;14.75
69035;BME280;56091;55.756;37.412;2023-04-15T13:40:12;100320.84;;;12.68;13.92
69035;BME280;56091;55.756;37.412;2023-04-15T13:45:13;100328.94;;;12.23;13.75
69035;BME280;56091;55.756;37.412;2023-04-15T13:50:14;100322.72;;;12.51;14.11
69035;BME280;56091;55.756;37.412;2023-04-15T13:55:15;100314.56;;;12.80;14.21
69035;BME280;56091;55.756;37.412;2023-04-15T14:00:16;100312.88;;;13.07;14.79
69035;BME280;56091;55.756;37.412;2023-04-15T14:05:18;100310.72;;;13.60;13.74
69035;BME280;56091;55.756;37.412;2023-04-15T14:10:21;100306.78;;;16.32;11.20
69035;BME280;56091;55.756;37.412;2023-04-15T14:15:22;100319.00;;;18.04;9.64
69035;BME280;56091;55.756;37.412;2023-04-15T14:20:26;100312.81;;;18.87;9.22
69035;BME280;56091;55.756;37.412;2023-04-15T14:25:29;100300.31;;;20.36;8.18
69035;BME280;56091;55.756;37.412;2023-04-15T14:30:32;100312.63;;;22.39;7.64
69035;BME280;56091;55.756;37.412;2023-04-15T14:35:33;100314.50;;;22.89;7.55
69035;BME280;56091;55.756;37.412;2023-04-15T14:40:34;100310.50;;;23.18;7.85
69035;BME280;56091;55.756;37.412;2023-04-15T14:45:36;100310.34;;;21.91;8.02
69035;BME280;56091;55.756;37.412;2023-04-15T14:50:37;100301.78;;;21.93;7.97
69035;BME280;56091;55.756;37.412;2023-04-15T14:55:38;100304.34;;;21.61;7.97
69035;BME280;56091;55.756;37.412;2023-04-15T15:00:42;100306.28;;;21.28;7.94
69035;BME280;56091;55.756;37.412;2023-04-15T15:05:45;100291.81;;;21.69;7.57
69035;BME280;56091;55.756;37.412;2023-04-15T15:10:46;100297.00;;;22.26;7.69
69035;BME280;56091;55.756;37.412;2023-04-15T15:15:47;100309.00;;;21.14;8.25
69035;BME280;56091;55.756;37.412;2023-04-15T15:20:54;100294.47;;;21.88;7.91
69035;BME280;56091;55.756;37.412;2023-04-15T15:25:56;100293.78;;;21.69;8.07
69035;BME280;56091;55.756;37.412;2023-04-15T15:30:57;100295.88;;;21.99;8.07
69035;BME280;56091;55.756;37.412;2023-04-15T15:35:58;100283.72;;;18.62;9.34
69035;BME280;56091;55.756;37.412;2023-04-15T15:40:59;100309.78;;;15.72;11.50
69035;BME280;56091;55.756;37.412;2023-04-15T15:46:00;100303.16;;;14.29;12.53
69035;BME280;56091;55.756;37.412;2023-04-15T15:51:01;100277.72;;;13.13;13.94
69035;BME280;56091;55.756;37.412;2023-04-15T15:56:04;100297.72;;;12.61;14.55
69035;BME280;56091;55.756;37.412;2023-04-15T16:01:04;100284.13;;;11.63;15.58
69035;BME280;56091;55.756;37.412;2023-04-15T16:06:06;100297.78;;;11.21;15.79
69035;BME280;56091;55.756;37.412;2023-04-15T16:11:06;100297.03;;;10.90;16.57
69035;BME280;56091;55.756;37.412;2023-04-15T16:16:07;100299.63;;;10.54;16.96
69035;BME280;56091;55.756;37.412;2023-04-15T16:21:08;100300.69;;;10.23;17.49
69035;BME280;56091;55.756;37.412;2023-04-15T16:26:09;100303.72;;;9.96;17.76
69035;BME280;56091;55.756;37.412;2023-04-15T16:31:11;100304.06;;;9.63;18.23
69035;BME280;56091;55.756;37.412;2023-04-15T16:36:11;100301.34;;;9.26;18.56
69035;BME280;56091;55.756;37.412;2023-04-15T16:41:13;100282.94;;;8.98;18.76
69035;BME280;56091;55.756;37.412;2023-04-15T16:46:14;100283.75;;;8.73;18.98
69035;BME280;56091;55.756;37.412;2023-04-15T16:51:15;100304.13;;;8.88;19.78
69035;BME280;56091;55.756;37.412;2023-04-15T16:56:15;100306.59;;;8.89;19.50
69035;BME280;56091;55.756;37.412;2023-04-15T17:01:16;100299.47;;;8.76;19.57
69035;BME280;56091;55.756;37.412;2023-04-15T17:06:20;100308.47;;;8.89;20.11
69035;BME280;56091;55.756;37.412;2023-04-15T17:11:21;100304.63;;;8.78;19.23
69035;BME280;56091;55.756;37.412;2023-04-15T17:16:22;100312.78;;;8.65;19.69
69035;BME280;56091;55.756;37.412;2023-04-15T17:21:26;100302.97;;;8.45;19.96
69035;BME280;56091;55.756;37.412;2023-04-15T17:26:33;100317.34;;;8.19;20.04
69035;BME280;56091;55.756;37.412;2023-04-15T17:31:35;100329.16;;;8.11;20.54
69035;BME280;56091;55.756;37.412;2023-04-15T17:37:03;100325.03;;;8.09;20.28
69035;BME280;56091;55.756;37.412;2023-04-15T17:42:30;100325.50;;;7.99;20.42
69035;BME280;56091;55.756;37.412;2023-04-15T17:47:50;100320.34;;;7.91;20.47
69035;BME280;56091;55.756;37.412;2023-04-15T17:53:11;100317.28;;;7.80;20.58
69035;BME280;56091;55.756;37.412;2023-04-15T17:58:32;100319.81;;;7.69;20.90
69035;BME280;56091;55.756;37.412;2023-04-15T18:03:58;100323.09;;;7.64;21.19
69035;BME280;56091;55.756;37.412;2023-04-15T18:09:19;100326.44;;;7.59;21.14
69035;BME280;56091;55.756;37.412;2023-04-15T18:14:42;100317.97;;;7.49;21.70
69035;BME280;56091;55.756;37.412;2023-04-15T18:20:04;100333.88;;;7.57;21.91
69035;BME280;56091;55.756;37.412;2023-04-15T18:25:06;100333.47;;;7.47;21.67
69035;BME280;56091;55.756;37.412;2023-04-15T18:30:09;100327.50;;;7.32;21.98
69035;BME280;56091;55.756;37.412;2023-04-15T18:35:10;100327.31;;;7.20;22.12
69035;BME280;56091;55.756;37.412;2023-04-15T18:40:11;100338.66;;;7.29;22.25
69035;BME280;56091;55.756;37.412;2023-04-15T18:45:15;100338.03;;;7.27;22.71
69035;BME280;56091;55.756;37.412;2023-04-15T18:50:16;100329.38;;;7.18;22.58
69035;BME280;56091;55.756;37.412;2023-04-15T18:55:17;100343.00;;;7.10;22.65
69035;BME280;56091;55.756;37.412;2023-04-15T19:00:18;100347.94;;;7.06;22.98
69035;BME280;56091;55.756;37.412;2023-04-15T19:05:19;100342.38;;;7.01;22.84
69035;BME280;56091;55.756;37.412;2023-04-15T19:10:22;100345.03;;;6.88;22.86
69035;BME280;56091;55.756;37.412;2023-04-15T19:15:23;100344.00;;;6.82;23.50
69035;BME280;56091;55.756;37.412;2023-04-15T19:20:24;100353.69;;;6.76;23.25
69035;BME280;56091;55.756;37.412;2023-04-15T19:25:26;100360.28;;;6.74;23.32
69035;BME280;56091;55.756;37.412;2023-04-15T19:30:26;100354.47;;;6.63;23.41
69035;BME280;56091;55.756;37.412;2023-04-15T19:35:29;100335.88;;;6.49;23.66
69035;BME280;56091;55.756;37.412;2023-04-15T19:40:30;100361.94;;;6.68;23.50
69035;BME280;56091;55.756;37.412;2023-04-15T19:45:32;100351.38;;;6.60;23.78
69035;BME280;56091;55.756;37.412;2023-04-15T19:50:34;100363.13;;;6.65;23.81
69035;BME280;56091;55.756;37.412;2023-04-15T19:55:43;100369.75;;;6.63;24.08
69035;BME280;56091;55.756;37.412;2023-04-15T20:00:44;100370.56;;;6.57;23.85
69035;BME280;56091;55.756;37.412;2023-04-15T20:05:44;100361.66;;;6.50;23.90
69035;BME280;56091;55.756;37.412;2023-04-15T20:10:45;100387.25;;;6.59;24.19
69035;BME280;56091;55.756;37.412;2023-04-15T20:15:46;100385.84;;;6.63;24.11
69035;BME280;56091;55.756;37.412;2023-04-15T20:20:47;100398.59;;;6.61;23.89
69035;BME280;56091;55.756;37.412;2023-04-15T20:25:48;100399.22;;;6.63;24.48
69035;BME280;56091;55.756;37.412;2023-04-15T20:30:52;100382.50;;;6.54;24.35
69035;BME280;56091;55.756;37.412;2023-04-15T20:35:54;100396.75;;;6.55;24.47
69035;BME280;56091;55.756;37.412;2023-04-15T20:40:58;100370.91;;;6.40;24.48
69035;BME280;56091;55.756;37.412;2023-04-15T20:45:59;100392.16;;;6.49;24.83
69035;BME280;56091;55.756;37.412;2023-04-15T20:51:00;100387.41;;;6.44;24.77
69035;BME280;56091;55.756;37.412;2023-04-15T20:56:00;100376.22;;;6.27;24.85
69035;BME280;56091;55.756;37.412;2023-04-15T21:01:01;100397.28;;;6.30;24.79
69035;BME280;56091;55.756;37.412;2023-04-15T21:06:02;100375.09;;;6.08;25.44
69035;BME280;56091;55.756;37.412;2023-04-15T21:11:03;100386.63;;;6.09;25.05
69035;BME280;56091;55.756;37.412;2023-04-15T21:16:04;100391.53;;;5.98;25.34
69035;BME280;56091;55.756;37.412;2023-04-15T21:21:05;100380.47;;;5.80;25.55
69035;BME280;56091;55.756;37.412;2023-04-15T21:26:06;100410.81;;;5.87;25.60
69035;BME280;56091;55.756;37.412;2023-04-15T21:31:07;100412.78;;;5.78;25.66
69035;BME280;56091;55.756;37.412;2023-04-15T21:36:07;100412.94;;;5.70;26.08
69035;BME280;56091;55.756;37.412;2023-04-15T21:41:08;100418.28;;;5.63;26.35
69035;BME280;56091;55.756;37.412;2023-04-15T21:46:10;100430.38;;;5.59;26.14
69035;BME280;56091;55.756;37.412;2023-04-15T21:51:11;100434.66;;;5.54;26.41
69035;BME280;56091;55.756;37.412;2023-04-15T21:56:12;100437.31;;;5.54;26.70
69035;BME280;56091;55.756;37.412;2023-04-15T22:01:14;100441.22;;;5.51;26.89
69035;BME280;56091;55.756;37.412;2023-04-15T22:06:15;100444.28;;;5.48;27.26
69035;BME280;56091;55.756;37.412;2023-04-15T22:11:20;100441.56;;;5.41;26.95
69035;BME280;56091;55.756;37.412;2023-04-15T22:16:25;100432.81;;;5.33;27.02
69035;BME280;56091;55.756;37.412;2023-04-15T22:21:26;100434.22;;;5.28;26.68
69035;BME280;56091;55.756;37.412;2023-04-15T22:26:31;100439.72;;;5.20;26.78
69035;BME280;56091;55.756;37.412;2023-04-15T22:31:32;100458.19;;;5.15;26.48
69035;BME280;56091;55.756;37.412;2023-04-15T22:36:33;100459.78;;;5.09;26.10
69035;BME280;56091;55.756;37.412;2023-04-15T22:41:34;100466.34;;;5.07;26.53
69035;BME280;56091;55.756;37.412;2023-04-15T22:46:35;100442.13;;;4.94;26.88
69035;BME280;56091;55.756;37.412;2023-04-15T22:51:37;100460.34;;;5.05;26.78
69035;BME280;56091;55.756;37.412;2023-04-15T22:56:38;100473.28;;;5.01;26.57
69035;BME280;56091;55.756;37.412;2023-04-15T23:01:39;100472.00;;;4.97;26.50
69035;BME280;56091;55.756;37.412;2023-04-15T23:06:40;100466.19;;;4.94;26.62
69035;BME280;56091;55.756;37.412;2023-04-15T23:11:41;100469.88;;;4.93;26.76
69035;BME280;56091;55.756;37.412;2023-04-15T23:16:41;100462.63;;;4.86;26.31
69035;BME280;56091;55.756;37.412;2023-04-15T23:21:42;100469.50;;;4.96;26.31
69035;BME280;56091;55.756;37.412;2023-04-15T23:26:43;100451.28;;;4.84;25.99
69035;BME280;56091;55.756;37.412;2023-04-15T23:31:43;100461.59;;;4.87;26.35
69035;BME280;56091;55.756;37.412;2023-04-15T23:36:44;100483.78;;;5.03;26.11
69035;BME280;56091;55.756;37.412;2023-04-15T23:41:46;100484.16;;;5.00;25.88
69035;BME280;56091;55.756;37.412;2023-04-15T23:46:47;100490.97;;;5.02;25.80
69035;BME280;56091;55.756;37.412;2023-04-15T23:51:48;100490.78;;;5.04;26.35
69035;BME280;56091;55.756;37.412;2023-04-15T23:56:49;100495.94;;;5.05;26.49
